sensor_id;sensor_type;location;lat;lon;timestamp;temperature;humidity
15617;DHT22;7908;51.688;7.130;2023-08-06T00:00:44;14.90;99.90
15617;DHT22;7908;51.688;7.130;2023-08-06T00:03:32;14.90;99.90
15617;DHT22;7908;51.688;7.130;2023-08-06T00:06:01;14.90;99.90
15617;DHT22;7908;51.688;7.130;2023-08-06T00:08:33;14.80;99.90
15617;DHT22;7908;51.688;7.130;2023-08-06T00:11:04;14.80;99.90
15617;DHT22;7908;51.688;7.130;2023-08-06T00:13:41;14.80;99.90
15617;DHT22;7908;51.688;7.130;2023-08-06T00:16:31;14.90;99.90
15617;DHT22;7908;51.688;7.130;2023-08-06T00:19:09;14.90;99.90
15617;DHT22;7908;51.688;7.130;2023-08-06T00:21:37;14.90;99.90
15617;DHT22;7908;51.688;7.130;2023-08-06T00:24:06;14.90;99.90
15617;DHT22;7908;51.688;7.130;2023-08-06T00:26:34;14.90;99.90
15617;DHT22;7908;51.688;7.130;2023-08-06T00:29:04;14.90;99.90
15617;DHT22;7908;51.688;7.130;2023-08-06T00:31:33;14.90;99.90
15617;DHT22;7908;51.688;7.130;2023-08-06T00:34:01;14.90;99.90
15617;DHT22;7908;51.688;7.130;2023-08-06T00:36:30;14.90;99.90
15617;DHT22;7908;51.688;7.130;2023-08-06T00:38:59;14.90;99.90
15617;DHT22;7908;51.688;7.130;2023-08-06T00:41:27;14.90;99.90
15617;DHT22;7908;51.688;7.130;2023-08-06T00:43:56;14.90;99.90
15617;DHT22;7908;51.688;7.130;2023-08-06T00:46:26;14.90;99.90
15617;DHT22;7908;51.688;7.130;2023-08-06T00:49:10;14.90;99.90
15617;DHT22;7908;51.688;7.130;2023-08-06T00:51:40;14.90;99.90
15617;DHT22;7908;51.688;7.130;2023-08-06T00:54:08;14.90;99.90
15617;DHT22;7908;51.688;7.130;2023-08-06T00:56:37;14.90;99.90
15617;DHT22;7908;51.688;7.130;2023-08-06T00:59:10;14.90;99.90
15617;DHT22;7908;51.688;7.130;2023-08-06T01:01:43;14.90;99.90
15617;DHT22;7908;51.688;7.130;2023-08-06T01:04:14;14.90;99.90
15617;DHT22;7908;51.688;7.130;2023-08-06T01:06:45;14.90;99.90
15617;DHT22;7908;51.688;7.130;2023-08-06T01:09:29;15.00;99.90
15617;DHT22;7908;51.688;7.130;2023-08-06T01:12:06;14.90;99.90
15617;DHT22;7908;51.688;7.130;2023-08-06T01:14:45;14.90;99.90
15617;DHT22;7908;51.688;7.130;2023-08-06T01:17:26;14.90;99.90
15617;DHT22;7908;51.688;7.130;2023-08-06T01:19:57;14.80;99.90
15617;DHT22;7908;51.688;7.130;2023-08-06T01:22:27;14.90;99.90
15617;DHT22;7908;51.688;7.130;2023-08-06T01:24:57;14.80;99.90
15617;DHT22;7908;51.688;7.130;2023-08-06T01:27:30;14.80;99.90
15617;DHT22;7908;51.688;7.130;2023-08-06T01:30:04;14.80;99.90
15617;DHT22;7908;51.688;7.130;2023-08-06T01:32:35;14.90;99.90
15617;DHT22;7908;51.688;7.130;2023-08-06T01:35:08;14.90;99.90
15617;DHT22;7908;51.688;7.130;2023-08-06T01:37:40;14.90;99.90
15617;DHT22;7908;51.688;7.130;2023-08-06T01:40:15;14.90;99.90
15617;DHT22;7908;51.688;7.130;2023-08-06T01:42:44;14.90;99.90
15617;DHT22;7908;51.688;7.130;2023-08-06T01:45:12;14.90;99.90
15617;DHT22;7908;51.688;7.130;2023-08-06T01:47:41;14.90;99.90
15617;DHT22;7908;51.688;7.130;2023-08-06T01:50:09;14.90;99.90
15617;DHT22;7908;51.688;7.130;2023-08-06T01:52:39;14.90;99.90
15617;DHT22;7908;51.688;7.130;2023-08-06T01:55:08;15.00;99.90
15617;DHT22;7908;51.688;7.130;2023-08-06T01:57:37;15.00;99.90
15617;DHT22;7908;51.688;7.130;2023-08-06T02:00:06;15.00;99.90
15617;DHT22;7908;51.688;7.130;2023-08-06T02:02:35;15.00;99.90
15617;DHT22;7908;51.688;7.130;2023-08-06T02:05:04;15.00;99.90
15617;DHT22;7908;51.688;7.130;2023-08-06T02:07:33;15.00;99.90
15617;DHT22;7908;51.688;7.130;2023-08-06T02:10:03;15.00;99.90
15617;DHT22;7908;51.688;7.130;2023-08-06T02:12:33;15.00;99.90
15617;DHT22;7908;51.688;7.130;2023-08-06T02:15:03;15.00;99.90
15617;DHT22;7908;51.688;7.130;2023-08-06T02:17:31;15.00;99.90
15617;DHT22;7908;51.688;7.130;2023-08-06T02:20:00;15.00;99.90
15617;DHT22;7908;51.688;7.130;2023-08-06T02:22:29;15.00;99.90
15617;DHT22;7908;51.688;7.130;2023-08-06T02:25:00;15.00;99.90
15617;DHT22;7908;51.688;7.130;2023-08-06T02:27:34;15.00;99.90
15617;DHT22;7908;51.688;7.130;2023-08-06T02:30:04;15.00;99.90
15617;DHT22;7908;51.688;7.130;2023-08-06T02:32:33;15.00;99.90
15617;DHT22;7908;51.688;7.130;2023-08-06T02:35:03;15.00;99.90
15617;DHT22;7908;51.688;7.130;2023-08-06T02:37:35;14.90;99.90
15617;DHT22;7908;51.688;7.130;2023-08-06T02:40:05;14.90;99.90
15617;DHT22;7908;51.688;7.130;2023-08-06T02:42:35;14.90;99.90
15617;DHT22;7908;51.688;7.130;2023-08-06T02:45:05;14.80;99.90
15617;DHT22;7908;51.688;7.130;2023-08-06T02:47:34;14.80;99.90
15617;DHT22;7908;51.688;7.130;2023-08-06T02:50:03;14.70;99.90
15617;DHT22;7908;51.688;7.130;2023-08-06T02:52:31;14.80;99.90
15617;DHT22;7908;51.688;7.130;2023-08-06T02:55:00;14.70;99.90
15617;DHT22;7908;51.688;7.130;2023-08-06T02:57:30;14.70;99.90
15617;DHT22;7908;51.688;7.130;2023-08-06T03:00:00;14.70;99.90
15617;DHT22;7908;51.688;7.130;2023-08-06T03:02:29;14.70;99.90
15617;DHT22;7908;51.688;7.130;2023-08-06T03:04:58;14.70;99.90
15617;DHT22;7908;51.688;7.130;2023-08-06T03:07:27;14.70;99.90
15617;DHT22;7908;51.688;7.130;2023-08-06T03:09:55;14.80;99.90
15617;DHT22;7908;51.688;7.130;2023-08-06T03:12:24;14.70;99.90
15617;DHT22;7908;51.688;7.130;2023-08-06T03:14:53;14.70;99.90
15617;DHT22;7908;51.688;7.130;2023-08-06T03:17:23;14.70;99.90
15617;DHT22;7908;51.688;7.130;2023-08-06T03:19:52;14.80;99.90
15617;DHT22;7908;51.688;7.130;2023-08-06T03:22:21;14.70;99.90
15617;DHT22;7908;51.688;7.130;2023-08-06T03:24:51;14.70;99.90
15617;DHT22;7908;51.688;7.130;2023-08-06T03:27:21;14.70;99.90
15617;DHT22;7908;51.688;7.130;2023-08-06T03:29:50;14.70;99.90
15617;DHT22;7908;51.688;7.130;2023-08-06T03:32:19;14.70;99.90
15617;DHT22;7908;51.688;7.130;2023-08-06T03:34:49;14.80;99.90
15617;DHT22;7908;51.688;7.130;2023-08-06T03:37:18;14.70;99.90
15617;DHT22;7908;51.688;7.130;2023-08-06T03:39:46;14.70;99.90
15617;DHT22;7908;51.688;7.130;2023-08-06T03:42:15;14.70;99.90
15617;DHT22;7908;51.688;7.130;2023-08-06T03:44:43;14.70;99.90
15617;DHT22;7908;51.688;7.130;2023-08-06T03:47:12;14.70;99.90
15617;DHT22;7908;51.688;7.130;2023-08-06T03:49:41;15.00;99.90
15617;DHT22;7908;51.688;7.130;2023-08-06T03:52:11;14.60;99.90
15617;DHT22;7908;51.688;7.130;2023-08-06T03:54:40;14.60;99.90
15617;DHT22;7908;51.688;7.130;2023-08-06T03:57:13;14.50;99.90
15617;DHT22;7908;51.688;7.130;2023-08-06T03:59:43;14.00;99.90
15617;DHT22;7908;51.688;7.130;2023-08-06T04:02:23;14.50;99.90
15617;DHT22;7908;51.688;7.130;2023-08-06T04:04:52;13.50;99.90
15617;DHT22;7908;51.688;7.130;2023-08-06T04:07:22;14.50;99.90
15617;DHT22;7908;51.688;7.130;2023-08-06T04:09:53;14.60;99.90
15617;DHT22;7908;51.688;7.130;2023-08-06T04:12:21;14.50;99.90
15617;DHT22;7908;51.688;7.130;2023-08-06T04:14:51;14.50;99.90
15617;DHT22;7908;51.688;7.130;2023-08-06T04:17:20;14.50;99.90
15617;DHT22;7908;51.688;7.130;2023-08-06T04:19:51;14.40;99.90
15617;DHT22;7908;51.688;7.130;2023-08-06T04:22:21;14.40;99.90
15617;DHT22;7908;51.688;7.130;2023-08-06T04:24:50;14.40;99.90
15617;DHT22;7908;51.688;7.130;2023-08-06T04:27:19;14.30;99.90
15617;DHT22;7908;51.688;7.130;2023-08-06T04:29:48;14.30;99.90
15617;DHT22;7908;51.688;7.130;2023-08-06T04:32:16;14.20;99.90
15617;DHT22;7908;51.688;7.130;2023-08-06T04:34:46;14.20;99.90
15617;DHT22;7908;51.688;7.130;2023-08-06T04:37:15;14.20;99.90
15617;DHT22;7908;51.688;7.130;2023-08-06T04:39:46;14.20;99.90
15617;DHT22;7908;51.688;7.130;2023-08-06T04:42:17;14.20;99.90
15617;DHT22;7908;51.688;7.130;2023-08-06T04:44:46;14.20;99.90
15617;DHT22;7908;51.688;7.130;2023-08-06T04:47:15;14.20;99.90
15617;DHT22;7908;51.688;7.130;2023-08-06T04:49:44;14.20;99.90
15617;DHT22;7908;51.688;7.130;2023-08-06T04:52:13;14.20;99.90
15617;DHT22;7908;51.688;7.130;2023-08-06T04:54:43;14.20;99.90
15617;DHT22;7908;51.688;7.130;2023-08-06T04:57:14;14.20;99.90
15617;DHT22;7908;51.688;7.130;2023-08-06T04:59:43;14.20;99.90
15617;DHT22;7908;51.688;7.130;2023-08-06T05:02:11;14.20;99.90
15617;DHT22;7908;51.688;7.130;2023-08-06T05:04:40;14.10;99.90
15617;DHT22;7908;51.688;7.130;2023-08-06T05:07:10;14.20;99.90
15617;DHT22;7908;51.688;7.130;2023-08-06T05:09:38;14.20;99.90
15617;DHT22;7908;51.688;7.130;2023-08-06T05:12:07;14.20;99.90
15617;DHT22;7908;51.688;7.130;2023-08-06T05:14:38;14.20;99.90
15617;DHT22;7908;51.688;7.130;2023-08-06T05:17:06;14.20;99.90
15617;DHT22;7908;51.688;7.130;2023-08-06T05:19:35;14.20;99.90
15617;DHT22;7908;51.688;7.130;2023-08-06T05:22:04;14.20;99.90
15617;DHT22;7908;51.688;7.130;2023-08-06T05:24:32;14.20;99.90
15617;DHT22;7908;51.688;7.130;2023-08-06T05:27:01;14.30;99.90
15617;DHT22;7908;51.688;7.130;2023-08-06T05:29:31;14.40;99.90
15617;DHT22;7908;51.688;7.130;2023-08-06T05:32:01;14.60;99.90
15617;DHT22;7908;51.688;7.130;2023-08-06T05:34:31;14.80;99.90
15617;DHT22;7908;51.688;7.130;2023-08-06T05:36:59;15.00;99.90
15617;DHT22;7908;51.688;7.130;2023-08-06T05:39:28;15.00;99.90
15617;DHT22;7908;51.688;7.130;2023-08-06T05:41:57;15.10;99.90
15617;DHT22;7908;51.688;7.130;2023-08-06T05:44:26;15.20;99.90
15617;DHT22;7908;51.688;7.130;2023-08-06T05:46:55;15.40;99.90
15617;DHT22;7908;51.688;7.130;2023-08-06T05:49:29;15.60;99.90
15617;DHT22;7908;51.688;7.130;2023-08-06T05:51:58;15.70;99.90
15617;DHT22;7908;51.688;7.130;2023-08-06T05:54:26;15.80;99.90
15617;DHT22;7908;51.688;7.130;2023-08-06T05:56:55;15.80;99.90
15617;DHT22;7908;51.688;7.130;2023-08-06T05:59:24;15.80;99.90
15617;DHT22;7908;51.688;7.130;2023-08-06T06:01:55;15.80;99.90
15617;DHT22;7908;51.688;7.130;2023-08-06T06:04:25;15.80;99.90
15617;DHT22;7908;51.688;7.130;2023-08-06T06:06:55;15.80;99.90
15617;DHT22;7908;51.688;7.130;2023-08-06T06:09:23;15.80;99.90
15617;DHT22;7908;51.688;7.130;2023-08-06T06:11:53;15.80;99.90
15617;DHT22;7908;51.688;7.130;2023-08-06T06:14:22;15.90;99.90
15617;DHT22;7908;51.688;7.130;2023-08-06T06:16:51;16.10;99.90
15617;DHT22;7908;51.688;7.130;2023-08-06T06:19:20;16.00;99.90
15617;DHT22;7908;51.688;7.130;2023-08-06T06:21:49;16.00;99.90
15617;DHT22;7908;51.688;7.130;2023-08-06T06:24:19;16.10;99.90
15617;DHT22;7908;51.688;7.130;2023-08-06T06:26:48;16.30;99.90
15617;DHT22;7908;51.688;7.130;2023-08-06T06:29:19;16.30;99.90
15617;DHT22;7908;51.688;7.130;2023-08-06T06:31:48;16.40;99.90
15617;DHT22;7908;51.688;7.130;2023-08-06T06:34:16;16.40;99.90
15617;DHT22;7908;51.688;7.130;2023-08-06T06:36:44;16.50;99.90
15617;DHT22;7908;51.688;7.130;2023-08-06T06:39:13;16.70;99.90
15617;DHT22;7908;51.688;7.130;2023-08-06T06:41:43;16.90;99.90
15617;DHT22;7908;51.688;7.130;2023-08-06T06:44:13;17.00;99.90
15617;DHT22;7908;51.688;7.130;2023-08-06T06:46:42;17.00;99.90
15617;DHT22;7908;51.688;7.130;2023-08-06T06:49:11;17.10;99.90
15617;DHT22;7908;51.688;7.130;2023-08-06T06:51:39;17.00;99.90
15617;DHT22;7908;51.688;7.130;2023-08-06T06:54:08;16.90;99.90
15617;DHT22;7908;51.688;7.130;2023-08-06T06:56:36;16.80;99.90
15617;DHT22;7908;51.688;7.130;2023-08-06T06:59:06;16.70;99.90
15617;DHT22;7908;51.688;7.130;2023-08-06T07:01:35;16.60;99.90
15617;DHT22;7908;51.688;7.130;2023-08-06T07:04:04;16.50;99.90
15617;DHT22;7908;51.688;7.130;2023-08-06T07:06:33;16.40;99.90
15617;DHT22;7908;51.688;7.130;2023-08-06T07:09:01;16.40;99.90
15617;DHT22;7908;51.688;7.130;2023-08-06T07:11:30;16.50;99.90
15617;DHT22;7908;51.688;7.130;2023-08-06T07:13:59;16.60;99.90
15617;DHT22;7908;51.688;7.130;2023-08-06T07:16:30;16.70;99.90
15617;DHT22;7908;51.688;7.130;2023-08-06T07:18:59;17.00;99.90
15617;DHT22;7908;51.688;7.130;2023-08-06T07:21:27;17.10;99.90
15617;DHT22;7908;51.688;7.130;2023-08-06T07:23:56;17.30;99.90
15617;DHT22;7908;51.688;7.130;2023-08-06T07:26:27;17.50;99.90
15617;DHT22;7908;51.688;7.130;2023-08-06T07:28:55;17.40;99.90
15617;DHT22;7908;51.688;7.130;2023-08-06T07:31:24;17.40;99.90
15617;DHT22;7908;51.688;7.130;2023-08-06T07:33:54;17.40;99.90
15617;DHT22;7908;51.688;7.130;2023-08-06T07:36:22;17.40;99.90
15617;DHT22;7908;51.688;7.130;2023-08-06T07:38:51;17.30;99.90
15617;DHT22;7908;51.688;7.130;2023-08-06T07:41:23;17.30;99.90
15617;DHT22;7908;51.688;7.130;2023-08-06T07:43:51;17.40;99.90
15617;DHT22;7908;51.688;7.130;2023-08-06T07:46:20;17.40;99.90
15617;DHT22;7908;51.688;7.130;2023-08-06T07:48:49;17.40;99.90
15617;DHT22;7908;51.688;7.130;2023-08-06T07:51:19;17.30;99.90
15617;DHT22;7908;51.688;7.130;2023-08-06T07:53:48;17.20;99.90
15617;DHT22;7908;51.688;7.130;2023-08-06T07:56:16;17.10;99.90
15617;DHT22;7908;51.688;7.130;2023-08-06T07:58:45;17.20;99.90
15617;DHT22;7908;51.688;7.130;2023-08-06T08:01:14;17.20;99.90
15617;DHT22;7908;51.688;7.130;2023-08-06T08:03:43;17.20;99.90
15617;DHT22;7908;51.688;7.130;2023-08-06T08:06:16;17.30;99.90
15617;DHT22;7908;51.688;7.130;2023-08-06T08:08:47;17.30;99.90
15617;DHT22;7908;51.688;7.130;2023-08-06T08:11:16;17.30;99.90
15617;DHT22;7908;51.688;7.130;2023-08-06T08:13:46;17.30;99.90
15617;DHT22;7908;51.688;7.130;2023-08-06T08:16:14;17.40;99.90
15617;DHT22;7908;51.688;7.130;2023-08-06T08:18:43;17.40;99.90
15617;DHT22;7908;51.688;7.130;2023-08-06T08:21:13;17.50;99.90
15617;DHT22;7908;51.688;7.130;2023-08-06T08:23:42;17.60;99.90
15617;DHT22;7908;51.688;7.130;2023-08-06T08:26:12;17.50;99.90
15617;DHT22;7908;51.688;7.130;2023-08-06T08:28:41;17.50;99.90
15617;DHT22;7908;51.688;7.130;2023-08-06T08:31:10;17.60;99.90
15617;DHT22;7908;51.688;7.130;2023-08-06T08:33:39;17.60;99.90
15617;DHT22;7908;51.688;7.130;2023-08-06T08:36:07;17.50;99.90
15617;DHT22;7908;51.688;7.130;2023-08-06T08:38:37;17.50;99.90
15617;DHT22;7908;51.688;7.130;2023-08-06T08:41:06;17.30;99.90
15617;DHT22;7908;51.688;7.130;2023-08-06T08:44:11;17.50;99.90
15617;DHT22;7908;51.688;7.130;2023-08-06T08:46:42;17.60;99.90
15617;DHT22;7908;51.688;7.130;2023-08-06T08:49:11;17.60;99.90
15617;DHT22;7908;51.688;7.130;2023-08-06T08:51:40;17.70;99.90
15617;DHT22;7908;51.688;7.130;2023-08-06T08:54:12;17.90;99.90
15617;DHT22;7908;51.688;7.130;2023-08-06T08:56:41;17.90;99.90
15617;DHT22;7908;51.688;7.130;2023-08-06T08:59:17;17.90;99.90
15617;DHT22;7908;51.688;7.130;2023-08-06T09:02:22;18.00;99.90
15617;DHT22;7908;51.688;7.130;2023-08-06T09:05:23;18.00;99.90
15617;DHT22;7908;51.688;7.130;2023-08-06T09:08:02;18.00;99.90
15617;DHT22;7908;51.688;7.130;2023-08-06T09:10:31;18.10;99.90
15617;DHT22;7908;51.688;7.130;2023-08-06T09:13:00;18.10;99.90
15617;DHT22;7908;51.688;7.130;2023-08-06T09:15:32;18.10;99.90
15617;DHT22;7908;51.688;7.130;2023-08-06T09:18:09;18.20;99.90
15617;DHT22;7908;51.688;7.130;2023-08-06T09:20:39;18.40;99.90
15617;DHT22;7908;51.688;7.130;2023-08-06T09:23:08;18.50;99.90
15617;DHT22;7908;51.688;7.130;2023-08-06T09:25:38;18.60;99.90
15617;DHT22;7908;51.688;7.130;2023-08-06T09:28:08;18.60;99.90
15617;DHT22;7908;51.688;7.130;2023-08-06T09:30:38;18.60;99.90
15617;DHT22;7908;51.688;7.130;2023-08-06T09:33:08;18.60;99.90
15617;DHT22;7908;51.688;7.130;2023-08-06T09:35:39;18.60;99.90
15617;DHT22;7908;51.688;7.130;2023-08-06T09:38:09;18.60;99.90
15617;DHT22;7908;51.688;7.130;2023-08-06T09:40:39;18.60;99.90
15617;DHT22;7908;51.688;7.130;2023-08-06T09:43:08;18.40;99.90
15617;DHT22;7908;51.688;7.130;2023-08-06T09:45:38;18.40;99.90
15617;DHT22;7908;51.688;7.130;2023-08-06T09:48:08;18.40;99.90
15617;DHT22;7908;51.688;7.130;2023-08-06T09:50:38;18.20;99.90
15617;DHT22;7908;51.688;7.130;2023-08-06T09:53:09;18.20;99.90
15617;DHT22;7908;51.688;7.130;2023-08-06T09:55:38;18.30;99.90
15617;DHT22;7908;51.688;7.130;2023-08-06T09:58:07;18.50;99.90
15617;DHT22;7908;51.688;7.130;2023-08-06T10:00:41;18.60;99.90
15617;DHT22;7908;51.688;7.130;2023-08-06T10:03:12;18.70;99.90
15617;DHT22;7908;51.688;7.130;2023-08-06T10:05:43;18.70;99.90
15617;DHT22;7908;51.688;7.130;2023-08-06T10:08:15;18.80;99.90
15617;DHT22;7908;51.688;7.130;2023-08-06T10:10:44;18.80;99.90
15617;DHT22;7908;51.688;7.130;2023-08-06T10:13:15;18.90;99.90
15617;DHT22;7908;51.688;7.130;2023-08-06T10:15:47;19.00;99.90
15617;DHT22;7908;51.688;7.130;2023-08-06T10:18:18;19.00;99.90
15617;DHT22;7908;51.688;7.130;2023-08-06T10:20:51;19.00;99.90
15617;DHT22;7908;51.688;7.130;2023-08-06T10:23:33;19.00;99.90
15617;DHT22;7908;51.688;7.130;2023-08-06T10:26:02;19.00;99.90
15617;DHT22;7908;51.688;7.130;2023-08-06T10:28:35;19.00;99.90
15617;DHT22;7908;51.688;7.130;2023-08-06T10:31:06;18.90;99.90
15617;DHT22;7908;51.688;7.130;2023-08-06T10:33:45;18.80;99.90
15617;DHT22;7908;51.688;7.130;2023-08-06T10:36:15;18.70;99.90
15617;DHT22;7908;51.688;7.130;2023-08-06T10:38:48;18.60;99.90
15617;DHT22;7908;51.688;7.130;2023-08-06T10:41:22;18.60;99.90
15617;DHT22;7908;51.688;7.130;2023-08-06T10:43:51;18.70;99.90
15617;DHT22;7908;51.688;7.130;2023-08-06T10:46:27;18.80;99.90
15617;DHT22;7908;51.688;7.130;2023-08-06T10:48:56;18.90;99.90
15617;DHT22;7908;51.688;7.130;2023-08-06T10:51:25;19.00;99.90
15617;DHT22;7908;51.688;7.130;2023-08-06T10:53:59;19.00;99.90
15617;DHT22;7908;51.688;7.130;2023-08-06T10:56:39;19.00;99.90
15617;DHT22;7908;51.688;7.130;2023-08-06T10:59:09;19.00;99.90
15617;DHT22;7908;51.688;7.130;2023-08-06T11:01:40;19.00;99.90
15617;DHT22;7908;51.688;7.130;2023-08-06T11:04:13;19.10;99.90
15617;DHT22;7908;51.688;7.130;2023-08-06T11:06:55;19.20;99.90
15617;DHT22;7908;51.688;7.130;2023-08-06T11:09:24;19.40;99.90
15617;DHT22;7908;51.688;7.130;2023-08-06T11:11:53;19.40;99.90
15617;DHT22;7908;51.688;7.130;2023-08-06T11:14:23;19.30;99.90
15617;DHT22;7908;51.688;7.130;2023-08-06T11:16:54;19.20;99.90
15617;DHT22;7908;51.688;7.130;2023-08-06T11:19:23;19.00;99.90
15617;DHT22;7908;51.688;7.130;2023-08-06T11:21:52;19.00;99.90
15617;DHT22;7908;51.688;7.130;2023-08-06T11:24:21;19.00;99.90
15617;DHT22;7908;51.688;7.130;2023-08-06T11:26:52;19.00;99.90
15617;DHT22;7908;51.688;7.130;2023-08-06T11:29:23;18.80;99.90
15617;DHT22;7908;51.688;7.130;2023-08-06T11:32:05;18.60;99.90
15617;DHT22;7908;51.688;7.130;2023-08-06T11:34:36;18.50;99.90
15617;DHT22;7908;51.688;7.130;2023-08-06T11:37:06;18.50;99.90
15617;DHT22;7908;51.688;7.130;2023-08-06T11:39:36;18.50;99.90
15617;DHT22;7908;51.688;7.130;2023-08-06T11:42:06;18.60;99.90
15617;DHT22;7908;51.688;7.130;2023-08-06T11:44:36;18.70;99.90
15617;DHT22;7908;51.688;7.130;2023-08-06T11:47:11;18.80;99.90
15617;DHT22;7908;51.688;7.130;2023-08-06T11:49:49;19.00;99.90
15617;DHT22;7908;51.688;7.130;2023-08-06T11:52:19;19.00;99.90
15617;DHT22;7908;51.688;7.130;2023-08-06T11:55:00;19.30;99.90
15617;DHT22;7908;51.688;7.130;2023-08-06T11:57:34;19.50;99.90
15617;DHT22;7908;51.688;7.130;2023-08-06T12:00:05;19.70;99.90
15617;DHT22;7908;51.688;7.130;2023-08-06T12:02:42;19.90;99.90
15617;DHT22;7908;51.688;7.130;2023-08-06T12:05:12;20.10;99.90
15617;DHT22;7908;51.688;7.130;2023-08-06T12:07:52;20.30;99.90
15617;DHT22;7908;51.688;7.130;2023-08-06T12:10:32;20.40;99.90
15617;DHT22;7908;51.688;7.130;2023-08-06T12:13:04;20.50;99.90
15617;DHT22;7908;51.688;7.130;2023-08-06T12:15:34;20.60;99.90
15617;DHT22;7908;51.688;7.130;2023-08-06T12:18:09;20.70;99.90
15617;DHT22;7908;51.688;7.130;2023-08-06T12:20:40;20.70;99.90
15617;DHT22;7908;51.688;7.130;2023-08-06T12:23:16;20.70;99.90
15617;DHT22;7908;51.688;7.130;2023-08-06T12:25:59;20.60;99.90
15617;DHT22;7908;51.688;7.130;2023-08-06T12:28:30;20.60;99.90
15617;DHT22;7908;51.688;7.130;2023-08-06T12:31:13;20.50;99.90
15617;DHT22;7908;51.688;7.130;2023-08-06T12:33:47;20.50;99.90
15617;DHT22;7908;51.688;7.130;2023-08-06T12:36:18;20.50;99.90
15617;DHT22;7908;51.688;7.130;2023-08-06T12:38:49;20.30;99.90
15617;DHT22;7908;51.688;7.130;2023-08-06T12:41:19;20.00;99.90
15617;DHT22;7908;51.688;7.130;2023-08-06T12:43:48;19.80;99.90
15617;DHT22;7908;51.688;7.130;2023-08-06T12:46:17;19.60;99.90
15617;DHT22;7908;51.688;7.130;2023-08-06T12:48:49;19.20;99.90
15617;DHT22;7908;51.688;7.130;2023-08-06T12:51:18;18.90;99.90
15617;DHT22;7908;51.688;7.130;2023-08-06T12:53:47;18.20;99.90
15617;DHT22;7908;51.688;7.130;2023-08-06T12:56:16;17.50;99.90
15617;DHT22;7908;51.688;7.130;2023-08-06T12:58:45;16.90;99.90
15617;DHT22;7908;51.688;7.130;2023-08-06T13:01:15;16.70;99.90
15617;DHT22;7908;51.688;7.130;2023-08-06T13:03:49;16.60;99.90
15617;DHT22;7908;51.688;7.130;2023-08-06T13:06:26;16.40;99.90
15617;DHT22;7908;51.688;7.130;2023-08-06T13:12:22;15.90;99.90
15617;DHT22;7908;51.688;7.130;2023-08-06T13:14:51;15.40;99.90
15617;DHT22;7908;51.688;7.130;2023-08-06T13:17:25;15.80;99.90
15617;DHT22;7908;51.688;7.130;2023-08-06T13:19:55;15.80;99.90
15617;DHT22;7908;51.688;7.130;2023-08-06T13:22:27;15.70;99.90
15617;DHT22;7908;51.688;7.130;2023-08-06T13:24:56;15.60;99.90
15617;DHT22;7908;51.688;7.130;2023-08-06T13:27:25;15.50;99.90
15617;DHT22;7908;51.688;7.130;2023-08-06T13:29:54;15.50;99.90
15617;DHT22;7908;51.688;7.130;2023-08-06T13:32:30;15.30;99.90
15617;DHT22;7908;51.688;7.130;2023-08-06T13:35:05;15.30;99.90
15617;DHT22;7908;51.688;7.130;2023-08-06T13:37:39;15.30;99.90
15617;DHT22;7908;51.688;7.130;2023-08-06T13:40:08;15.20;99.90
15617;DHT22;7908;51.688;7.130;2023-08-06T13:42:38;15.10;99.90
15617;DHT22;7908;51.688;7.130;2023-08-06T13:45:08;15.00;99.90
15617;DHT22;7908;51.688;7.130;2023-08-06T13:47:37;15.00;99.90
15617;DHT22;7908;51.688;7.130;2023-08-06T13:50:08;15.00;99.90
15617;DHT22;7908;51.688;7.130;2023-08-06T13:52:41;15.00;99.90
15617;DHT22;7908;51.688;7.130;2023-08-06T13:55:16;15.00;99.90
15617;DHT22;7908;51.688;7.130;2023-08-06T13:57:45;15.00;99.90
15617;DHT22;7908;51.688;7.130;2023-08-06T14:00:21;15.00;99.90
15617;DHT22;7908;51.688;7.130;2023-08-06T14:03:06;15.10;99.90
15617;DHT22;7908;51.688;7.130;2023-08-06T14:05:37;15.00;99.90
15617;DHT22;7908;51.688;7.130;2023-08-06T14:08:06;15.10;99.90
15617;DHT22;7908;51.688;7.130;2023-08-06T14:10:36;15.10;99.90
15617;DHT22;7908;51.688;7.130;2023-08-06T14:13:05;15.10;99.90
15617;DHT22;7908;51.688;7.130;2023-08-06T14:15:44;15.10;99.90
15617;DHT22;7908;51.688;7.130;2023-08-06T14:18:16;15.10;99.90
15617;DHT22;7908;51.688;7.130;2023-08-06T14:20:49;15.10;99.90
15617;DHT22;7908;51.688;7.130;2023-08-06T14:23:18;15.10;99.90
15617;DHT22;7908;51.688;7.130;2023-08-06T14:25:51;15.10;99.90
15617;DHT22;7908;51.688;7.130;2023-08-06T14:28:20;15.10;99.90
15617;DHT22;7908;51.688;7.130;2023-08-06T14:30:54;15.10;99.90
15617;DHT22;7908;51.688;7.130;2023-08-06T14:33:27;15.20;99.90
15617;DHT22;7908;51.688;7.130;2023-08-06T14:35:57;15.40;99.90
15617;DHT22;7908;51.688;7.130;2023-08-06T14:38:26;15.50;99.90
15617;DHT22;7908;51.688;7.130;2023-08-06T14:40:56;15.60;99.90
15617;DHT22;7908;51.688;7.130;2023-08-06T14:43:28;15.70;99.90
15617;DHT22;7908;51.688;7.130;2023-08-06T14:45:57;15.10;99.90
15617;DHT22;7908;51.688;7.130;2023-08-06T14:48:26;15.70;99.90
15617;DHT22;7908;51.688;7.130;2023-08-06T14:50:56;15.80;99.90
15617;DHT22;7908;51.688;7.130;2023-08-06T14:53:25;15.70;99.90
15617;DHT22;7908;51.688;7.130;2023-08-06T14:56:09;15.70;99.90
15617;DHT22;7908;51.688;7.130;2023-08-06T15:02:29;15.50;99.90
15617;DHT22;7908;51.688;7.130;2023-08-06T15:05:07;15.80;99.90
15617;DHT22;7908;51.688;7.130;2023-08-06T15:07:56;15.80;99.90
15617;DHT22;7908;51.688;7.130;2023-08-06T15:10:55;15.80;99.90
15617;DHT22;7908;51.688;7.130;2023-08-06T15:14:15;15.70;99.90
15617;DHT22;7908;51.688;7.130;2023-08-06T15:16:51;15.90;99.90
15617;DHT22;7908;51.688;7.130;2023-08-06T15:19:24;15.90;99.90
15617;DHT22;7908;51.688;7.130;2023-08-06T15:21:59;16.00;99.90
15617;DHT22;7908;51.688;7.130;2023-08-06T15:25:04;15.90;99.90
15617;DHT22;7908;51.688;7.130;2023-08-06T15:27:35;15.80;99.90
15617;DHT22;7908;51.688;7.130;2023-08-06T15:30:08;14.70;99.90
15617;DHT22;7908;51.688;7.130;2023-08-06T15:32:54;15.60;99.90
15617;DHT22;7908;51.688;7.130;2023-08-06T15:35:33;15.50;99.90
15617;DHT22;7908;51.688;7.130;2023-08-06T15:38:19;15.50;99.90
15617;DHT22;7908;51.688;7.130;2023-08-06T15:40:57;15.40;99.90
15617;DHT22;7908;51.688;7.130;2023-08-06T15:43:30;15.40;99.90
15617;DHT22;7908;51.688;7.130;2023-08-06T15:46:05;15.30;99.90
15617;DHT22;7908;51.688;7.130;2023-08-06T15:49:04;15.10;99.90
15617;DHT22;7908;51.688;7.130;2023-08-06T16:36:42;15.00;99.90
15617;DHT22;7908;51.688;7.130;2023-08-06T16:39:16;15.00;99.90
15617;DHT22;7908;51.688;7.130;2023-08-06T16:41:49;15.00;99.90
15617;DHT22;7908;51.688;7.130;2023-08-06T16:44:20;15.00;99.90
15617;DHT22;7908;51.688;7.130;2023-08-06T16:46:50;15.00;99.90
15617;DHT22;7908;51.688;7.130;2023-08-06T16:49:23;15.10;99.90
15617;DHT22;7908;51.688;7.130;2023-08-06T16:51:55;15.10;99.90
15617;DHT22;7908;51.688;7.130;2023-08-06T16:54:24;15.10;99.90
15617;DHT22;7908;51.688;7.130;2023-08-06T16:56:54;15.10;99.90
15617;DHT22;7908;51.688;7.130;2023-08-06T16:59:23;15.20;99.90
15617;DHT22;7908;51.688;7.130;2023-08-06T17:01:53;15.20;99.90
15617;DHT22;7908;51.688;7.130;2023-08-06T17:04:25;15.20;99.90